Time,TemperatureF,DewpointF,PressureIn,WindDirection,WindDirectionDegrees,WindSpeedMPH,WindSpeedGustMPH,Humidity,HourlyPrecipIn,Conditions,Clouds,dailyrainin,SoftwareType,DateUTC
2013-07-15 00:01:00,66.2,65.8,30.25,ENE,60,0.0,4.0,99,0.00,,,0.00,meteohub,2013-07-15 04:01:00,
2013-07-15 00:02:00,66.2,65.8,30.26,NE,53,0.0,4.0,99,0.00,,,0.00,meteohub,2013-07-15 04:02:00,
2013-07-15 00:07:00,66.0,65.5,30.25,North,11,0.0,4.0,98,0.00,,,0.00,meteohub,2013-07-15 04:07:00,
2013-07-15 00:12:00,65.8,65.3,30.26,North,8,0.0,4.0,98,0.00,,,0.00,meteohub,2013-07-15 04:12:00,
2013-07-15 00:17:00,65.7,65.1,30.25,NNE,17,1.0,6.0,98,0.00,,,0.00,meteohub,2013-07-15 04:17:00,
2013-07-15 00:22:00,66.0,65.7,30.26,ENE,75,1.0,6.0,99,0.00,,,0.00,meteohub,2013-07-15 04:22:00,
2013-07-15 00:27:00,66.4,66.0,30.26,ENE,75,0.0,6.0,99,0.00,,,0.00,meteohub,2013-07-15 04:27:00,
2013-07-15 00:32:00,66.7,66.4,30.26,SE,127,0.0,4.0,99,0.00,,,0.00,meteohub,2013-07-15 04:32:00,
2013-07-15 00:37:00,66.6,66.0,30.27,NNE,27,0.0,2.0,98,0.00,,,0.00,meteohub,2013-07-15 04:37:00,
2013-07-15 00:42:00,66.6,66.2,30.27,NW,304,0.0,2.0,99,0.00,,,0.00,meteohub,2013-07-15 04:42:00,
2013-07-15 00:47:00,66.6,66.2,30.27,West,271,0.0,1.0,99,0.00,,,0.00,meteohub,2013-07-15 04:47:00,
2013-07-15 00:52:00,66.6,66.2,30.27,NNW,344,0.0,1.0,99,0.00,,,0.00,meteohub,2013-07-15 04:52:00,
2013-07-15 00:57:00,66.7,66.4,30.27,North,11,2.0,6.0,99,0.00,,,0.00,meteohub,2013-07-15 04:57:00,
2013-07-15 01:02:00,66.7,66.4,30.27,SSW,200,0.0,6.0,99,0.00,,,0.00,meteohub,2013-07-15 05:02:00,
2013-07-15 01:07:00,66.9,66.6,30.27,ENE,57,0.0,6.0,99,0.00,,,0.00,meteohub,2013-07-15 05:07:00,
2013-07-15 01:12:00,67.3,66.9,30.27,NE,41,0.0,4.0,99,0.00,,,0.00,meteohub,2013-07-15 05:12:00,
2013-07-15 01:17:00,67.3,66.7,30.26,NE,53,1.0,4.0,98,0.00,,,0.00,meteohub,2013-07-15 05:17:00,
2013-07-15 01:22:00,67.3,66.7,30.26,NW,322,0.0,3.0,98,0.00,,,0.00,meteohub,2013-07-15 05:22:00,
2013-07-15 01:27:00,67.5,66.9,30.27,East,91,1.0,3.0,98,0.01,,,0.01,meteohub,2013-07-15 05:27:00,
2013-07-15 01:32:00,67.5,66.9,30.27,SE,129,0.0,4.0,98,0.01,,,0.01,meteohub,2013-07-15 05:32:00,
2013-07-15 01:37:00,67.3,66.7,30.27,WNW,294,0.0,4.0,98,0.01,,,0.01,meteohub,2013-07-15 05:37:00,
2013-07-15 01:42:00,67.3,66.7,30.27,NNW,347,0.0,4.0,98,0.01,,,0.01,meteohub,2013-07-15 05:42:00,
2013-07-15 01:47:00,67.3,66.7,30.27,ENE,65,0.0,4.0,98,0.01,,,0.01,meteohub,2013-07-15 05:47:00,
2013-07-15 01:52:00,67.1,66.6,30.27,ENE,60,0.0,4.0,98,0.01,,,0.01,meteohub,2013-07-15 05:52:00,
2013-07-15 01:57:00,66.9,66.4,30.27,SE,135,0.0,4.0,98,0.01,,,0.01,meteohub,2013-07-15 05:57:00,
2013-07-15 02:02:00,67.1,66.6,30.26,SE,133,0.0,2.0,98,0.01,,,0.01,meteohub,2013-07-15 06:02:00,
2013-07-15 02:07:00,66.9,66.4,30.26,SE,139,0.0,2.0,98,0.01,,,0.01,meteohub,2013-07-15 06:07:00,
2013-07-15 02:12:00,66.7,66.2,30.26,SE,136,0.0,2.0,98,0.01,,,0.01,meteohub,2013-07-15 06:12:00,
2013-07-15 02:17:00,66.7,66.2,30.26,SE,136,0.0,2.0,98,0.01,,,0.01,meteohub,2013-07-15 06:17:00,
2013-07-15 02:22:00,66.6,66.0,30.26,SE,136,0.0,1.0,98,0.00,,,0.01,meteohub,2013-07-15 06:22:00,
2013-07-15 02:27:00,66.4,66.0,30.26,SE,126,0.0,0.0,99,0.00,,,0.01,meteohub,2013-07-15 06:27:00,
2013-07-15 02:32:00,66.4,66.0,30.26,SE,125,0.0,3.0,99,0.00,,,0.01,meteohub,2013-07-15 06:32:00,
2013-07-15 02:37:00,66.4,66.0,30.26,SE,125,0.0,3.0,99,0.00,,,0.01,meteohub,2013-07-15 06:37:00,
2013-07-15 02:42:00,66.4,66.0,30.26,SE,126,0.0,1.0,99,0.00,,,0.01,meteohub,2013-07-15 06:42:00,
2013-07-15 02:47:00,66.4,66.0,30.26,SE,126,0.0,0.0,99,0.00,,,0.01,meteohub,2013-07-15 06:47:00,
2013-07-15 02:52:00,66.2,65.8,30.26,ESE,111,1.0,0.0,99,0.00,,,0.01,meteohub,2013-07-15 06:52:00,
2013-07-15 02:57:00,66.2,65.8,30.27,ESE,111,0.0,2.0,99,0.00,,,0.01,meteohub,2013-07-15 06:57:00,
2013-07-15 03:02:00,66.2,65.8,30.27,East,92,0.0,2.0,99,0.00,,,0.01,meteohub,2013-07-15 07:02:00,
2013-07-15 03:07:00,66.0,65.7,30.27,East,91,0.0,2.0,99,0.00,,,0.01,meteohub,2013-07-15 07:07:00,
2013-07-15 03:12:00,66.0,65.7,30.26,East,90,0.0,1.0,99,0.00,,,0.01,meteohub,2013-07-15 07:12:00,
2013-07-15 03:17:00,66.0,65.7,30.27,East,90,0.0,0.0,99,0.00,,,0.01,meteohub,2013-07-15 07:17:00,
2013-07-15 03:22:00,66.0,65.7,30.27,East,91,0.0,1.0,99,0.00,,,0.01,meteohub,2013-07-15 07:22:00,
2013-07-15 03:27:00,66.0,65.7,30.26,East,88,0.0,1.0,99,0.00,,,0.01,meteohub,2013-07-15 07:27:00,
2013-07-15 03:32:00,66.0,65.7,30.26,East,87,0.0,1.0,99,0.00,,,0.01,meteohub,2013-07-15 07:32:00,
2013-07-15 03:37:00,65.8,65.5,30.26,East,88,0.0,0.0,99,0.00,,,0.01,meteohub,2013-07-15 07:37:00,
2013-07-15 03:42:00,65.8,65.5,30.26,East,87,0.0,0.0,99,0.01,,,0.02,meteohub,2013-07-15 07:42:00,
2013-07-15 03:47:00,65.8,65.5,30.26,East,88,0.0,0.0,99,0.01,,,0.02,meteohub,2013-07-15 07:47:00,
2013-07-15 03:52:00,65.7,65.3,30.26,East,88,0.0,0.0,99,0.01,,,0.02,meteohub,2013-07-15 07:52:00,
2013-07-15 03:57:00,65.5,65.1,30.26,NNW,330,0.0,0.0,99,0.01,,,0.02,meteohub,2013-07-15 07:57:00,
2013-07-15 04:02:00,65.5,65.1,30.26,NNE,18,0.0,2.0,99,0.01,,,0.02,meteohub,2013-07-15 08:02:00,
2013-07-15 04:07:00,65.5,65.1,30.26,NNE,18,0.0,2.0,99,0.01,,,0.02,meteohub,2013-07-15 08:07:00,
2013-07-15 04:12:00,65.5,65.1,30.26,NNE,18,0.0,2.0,99,0.01,,,0.02,meteohub,2013-07-15 08:12:00,
2013-07-15 04:17:00,65.1,64.8,30.26,WNW,303,0.0,2.0,99,0.01,,,0.02,meteohub,2013-07-15 08:17:00,
2013-07-15 04:22:00,64.9,64.6,30.26,WNW,288,0.0,1.0,99,0.01,,,0.02,meteohub,2013-07-15 08:22:00,
2013-07-15 04:27:00,64.9,64.6,30.26,WNW,288,0.0,1.0,99,0.01,,,0.02,meteohub,2013-07-15 08:27:00,
2013-07-15 04:32:00,64.8,64.4,30.27,NW,326,0.0,1.0,99,0.01,,,0.02,meteohub,2013-07-15 08:32:00,
2013-07-15 04:37:00,63.9,63.9,30.27,NNW,328,0.0,1.0,100,0.00,,,0.02,meteohub,2013-07-15 08:37:00,
2013-07-15 04:42:00,63.9,63.9,30.27,NNW,328,0.0,1.0,100,0.00,,,0.02,meteohub,2013-07-15 08:42:00,
2013-07-15 07:32:00,64.9,64.9,30.30,North,-999,-999.0,-999.0,100,-99.99,,,0.02,meteohub,2013-07-15 11:32:00,
2013-07-15 07:37:00,65.1,65.1,30.30,North,-999,-999.0,-999.0,100,0.00,,,0.02,meteohub,2013-07-15 11:37:00,
2013-07-15 07:42:00,65.1,65.1,30.30,North,5,0.0,0.0,100,0.00,,,0.02,meteohub,2013-07-15 11:42:00,
2013-07-15 07:47:00,65.3,65.3,30.30,North,5,0.0,1.0,100,0.00,,,0.02,meteohub,2013-07-15 11:47:00,
2013-07-15 07:52:00,65.7,65.7,30.30,North,4,0.0,1.0,100,0.00,,,0.02,meteohub,2013-07-15 11:52:00,
2013-07-15 07:57:00,66.0,66.0,30.30,North,5,0.0,1.0,100,0.00,,,0.02,meteohub,2013-07-15 11:57:00,
2013-07-15 08:02:00,65.8,65.8,30.30,North,5,0.0,0.0,100,0.00,,,0.02,meteohub,2013-07-15 12:02:00,
2013-07-15 08:07:00,65.8,65.8,30.30,North,5,0.0,1.0,100,0.00,,,0.02,meteohub,2013-07-15 12:07:00,
2013-07-15 08:12:00,65.8,65.8,30.30,NNW,339,0.0,1.0,100,0.00,,,0.02,meteohub,2013-07-15 12:12:00,
2013-07-15 08:17:00,65.7,65.7,30.30,NNW,342,0.0,1.0,100,0.00,,,0.02,meteohub,2013-07-15 12:17:00,
2013-07-15 08:22:00,65.8,65.8,30.30,North,357,1.0,1.0,100,0.00,,,0.02,meteohub,2013-07-15 12:22:00,
2013-07-15 08:27:00,65.8,65.8,30.30,NW,308,0.0,3.0,100,0.00,,,0.02,meteohub,2013-07-15 12:27:00,
2013-07-15 08:32:00,66.0,66.0,30.30,North,8,1.0,3.0,100,0.00,,,0.02,meteohub,2013-07-15 12:32:00,
2013-07-15 08:37:00,66.0,65.7,30.30,NNE,15,1.0,3.0,99,0.00,,,0.02,meteohub,2013-07-15 12:37:00,
2013-07-15 08:42:00,66.4,66.0,30.30,NNE,15,0.0,3.0,99,0.00,,,0.02,meteohub,2013-07-15 12:42:00,
2013-07-15 08:47:00,66.9,66.9,30.30,North,359,1.0,3.0,100,0.00,,,0.02,meteohub,2013-07-15 12:47:00,
2013-07-15 08:52:00,67.3,66.9,30.31,North,6,0.0,3.0,99,0.00,,,0.02,meteohub,2013-07-15 12:52:00,
2013-07-15 08:57:00,67.5,66.9,30.31,North,5,2.0,2.0,98,0.00,,,0.02,meteohub,2013-07-15 12:57:00,
2013-07-15 09:02:00,67.8,66.9,30.31,NNE,20,0.0,3.0,97,0.00,,,0.02,meteohub,2013-07-15 13:02:00,
2013-07-15 09:07:00,68.4,67.1,30.31,North,359,2.0,3.0,96,0.00,,,0.02,meteohub,2013-07-15 13:07:00,
2013-07-15 09:12:00,68.4,66.9,30.31,NNE,19,0.0,3.0,95,0.00,,,0.02,meteohub,2013-07-15 13:12:00,
2013-07-15 09:17:00,69.3,67.8,30.31,NE,45,2.0,3.0,95,0.00,,,0.02,meteohub,2013-07-15 13:17:00,
2013-07-15 09:22:00,70.0,68.2,30.31,North,354,0.0,3.0,94,0.00,,,0.02,meteohub,2013-07-15 13:22:00,
2013-07-15 09:27:00,70.3,68.2,30.31,North,354,1.0,3.0,93,0.00,,,0.02,meteohub,2013-07-15 13:27:00,
2013-07-15 09:32:00,70.3,67.8,30.30,North,9,0.0,3.0,92,0.00,,,0.02,meteohub,2013-07-15 13:32:00,
2013-07-15 09:37:00,70.3,67.6,30.30,North,352,0.0,2.0,91,0.00,,,0.02,meteohub,2013-07-15 13:37:00,
2013-07-15 09:42:00,70.5,67.1,30.30,ENE,62,2.0,2.0,89,0.00,,,0.02,meteohub,2013-07-15 13:42:00,
2013-07-15 09:47:00,70.7,68.0,30.30,NNE,20,0.0,4.0,91,0.00,,,0.02,meteohub,2013-07-15 13:47:00,
2013-07-15 09:52:00,71.2,68.2,30.30,NNW,347,0.0,4.0,90,0.00,,,0.02,meteohub,2013-07-15 13:52:00,
2013-07-15 09:57:00,71.8,68.4,30.31,North,356,1.0,4.0,89,0.00,,,0.02,meteohub,2013-07-15 13:57:00,
2013-07-15 10:02:00,71.8,68.4,30.30,ENE,57,1.0,2.0,89,0.00,,,0.02,meteohub,2013-07-15 14:02:00,
2013-07-15 10:07:00,71.8,68.0,30.30,NE,53,0.0,4.0,88,0.00,,,0.02,meteohub,2013-07-15 14:07:00,
2013-07-15 10:12:00,72.0,68.5,30.30,NNE,19,0.0,4.0,89,0.00,,,0.02,meteohub,2013-07-15 14:12:00,
2013-07-15 10:17:00,72.1,68.7,30.30,NE,36,1.0,4.0,89,0.00,,,0.02,meteohub,2013-07-15 14:17:00,
2013-07-15 10:22:00,72.7,68.9,30.30,North,350,1.0,4.0,88,0.00,,,0.02,meteohub,2013-07-15 14:22:00,
2013-07-15 10:27:00,72.5,68.7,30.31,ENE,72,1.0,4.0,88,0.00,,,0.02,meteohub,2013-07-15 14:27:00,
2013-07-15 10:32:00,73.0,68.5,30.31,NW,326,0.0,4.0,86,0.00,,,0.02,meteohub,2013-07-15 14:32:00,
2013-07-15 10:37:00,73.6,68.7,30.31,East,86,1.0,4.0,85,0.00,,,0.02,meteohub,2013-07-15 14:37:00,
2013-07-15 10:42:00,74.1,68.9,30.31,East,79,2.0,3.0,84,0.00,,,0.02,meteohub,2013-07-15 14:42:00,
2013-07-15 10:47:00,73.9,69.1,30.31,ENE,72,2.0,3.0,85,0.00,,,0.02,meteohub,2013-07-15 14:47:00,
2013-07-15 10:52:00,73.9,68.4,30.31,NNW,332,0.0,3.0,83,0.00,,,0.02,meteohub,2013-07-15 14:52:00,
2013-07-15 10:57:00,74.1,68.9,30.31,NE,45,0.0,3.0,84,0.00,,,0.02,meteohub,2013-07-15 14:57:00,
2013-07-15 11:02:00,75.6,70.0,30.31,ENE,65,1.0,3.0,83,0.00,,,0.02,meteohub,2013-07-15 15:02:00,
2013-07-15 11:07:00,75.6,69.6,30.30,NNE,15,0.0,3.0,82,0.00,,,0.02,meteohub,2013-07-15 15:07:00,
2013-07-15 11:13:00,75.4,69.8,30.31,NNW,343,1.0,2.0,83,0.00,,,0.02,meteohub,2013-07-15 15:13:00,
2013-07-15 11:18:00,74.8,68.5,30.31,NNW,342,0.0,2.0,81,0.00,,,0.02,meteohub,2013-07-15 15:18:00,
2013-07-15 11:23:00,74.8,68.2,30.31,East,81,0.0,2.0,80,0.00,,,0.02,meteohub,2013-07-15 15:23:00,
2013-07-15 11:28:00,74.7,68.7,30.31,NNW,333,1.0,5.0,82,0.00,,,0.02,meteohub,2013-07-15 15:28:00,
2013-07-15 11:33:00,74.7,68.7,30.30,NNE,12,0.0,5.0,82,0.00,,,0.02,meteohub,2013-07-15 15:33:00,
2013-07-15 11:39:00,75.7,68.7,30.31,NNE,18,0.0,5.0,79,0.00,,,0.02,meteohub,2013-07-15 15:39:00,
2013-07-15 11:44:00,75.9,68.9,30.31,NE,52,2.0,4.0,79,0.00,,,0.02,meteohub,2013-07-15 15:44:00,
2013-07-15 11:49:00,75.4,69.4,30.31,East,91,1.0,4.0,82,0.00,,,0.02,meteohub,2013-07-15 15:49:00,
2013-07-15 11:54:00,75.9,68.9,30.31,ESE,121,0.0,2.0,79,0.00,,,0.02,meteohub,2013-07-15 15:54:00,
2013-07-15 11:59:00,76.8,69.8,30.31,North,11,4.0,4.0,79,0.00,,,0.02,meteohub,2013-07-15 15:59:00,
2013-07-15 12:04:00,76.5,67.6,30.31,East,85,0.0,4.0,74,0.00,,,0.02,meteohub,2013-07-15 16:04:00,
2013-07-15 12:09:00,76.3,67.5,30.31,SE,130,0.0,5.0,74,0.00,,,0.02,meteohub,2013-07-15 16:09:00,
2013-07-15 12:14:00,77.0,68.0,30.31,NE,56,1.0,5.0,74,0.00,,,0.02,meteohub,2013-07-15 16:14:00,
2013-07-15 12:19:00,78.1,68.7,30.31,SSW,200,2.0,3.0,73,0.00,,,0.02,meteohub,2013-07-15 16:19:00,
2013-07-15 12:24:00,78.8,69.4,30.31,ESE,115,5.0,5.0,73,0.00,,,0.02,meteohub,2013-07-15 16:24:00,
2013-07-15 12:29:00,78.1,67.5,30.31,ENE,57,3.0,4.0,70,0.00,,,0.02,meteohub,2013-07-15 16:29:00,
2013-07-15 12:34:00,76.3,67.8,30.31,ESE,122,2.0,5.0,75,0.00,,,0.02,meteohub,2013-07-15 16:34:00,
2013-07-15 12:40:00,75.4,68.0,30.31,North,10,0.0,5.0,78,0.00,,,0.02,meteohub,2013-07-15 16:40:00,
2013-07-15 12:45:00,75.9,67.8,30.31,East,82,0.0,5.0,76,0.00,,,0.02,meteohub,2013-07-15 16:45:00,
2013-07-15 12:50:00,75.9,67.8,30.30,East,95,0.0,3.0,76,0.00,,,0.02,meteohub,2013-07-15 16:50:00,
2013-07-15 12:55:00,76.3,68.5,30.31,NNW,346,0.0,3.0,77,0.00,,,0.02,meteohub,2013-07-15 16:55:00,
2013-07-15 13:00:00,76.5,68.7,30.31,East,79,1.0,3.0,77,0.00,,,0.02,meteohub,2013-07-15 17:00:00,
2013-07-15 13:06:00,76.8,68.4,30.30,SSE,151,2.0,3.0,75,0.00,,,0.02,meteohub,2013-07-15 17:06:00,
2013-07-15 13:12:00,77.7,68.4,30.30,East,100,0.0,5.0,73,0.00,,,0.02,meteohub,2013-07-15 17:12:00,
2013-07-15 13:17:00,79.2,70.5,30.30,East,91,0.0,5.0,75,0.00,,,0.02,meteohub,2013-07-15 17:17:00,
2013-07-15 13:22:00,78.3,69.3,30.30,NNW,348,0.0,5.0,74,0.00,,,0.02,meteohub,2013-07-15 17:22:00,
2013-07-15 13:27:00,78.6,68.0,30.29,East,87,0.0,3.0,70,0.00,,,0.02,meteohub,2013-07-15 17:27:00,
2013-07-15 13:32:00,79.9,68.7,30.29,East,80,0.0,5.0,69,0.00,,,0.02,meteohub,2013-07-15 17:32:00,
2013-07-15 13:37:00,79.7,68.5,30.29,ENE,58,1.0,5.0,69,0.00,,,0.02,meteohub,2013-07-15 17:37:00,
2013-07-15 13:42:00,79.3,69.4,30.29,North,353,2.0,5.0,72,0.00,,,0.02,meteohub,2013-07-15 17:42:00,
2013-07-15 13:48:00,79.5,68.5,30.28,NE,50,0.0,5.0,69,0.00,,,0.02,meteohub,2013-07-15 17:48:00,
2013-07-15 13:53:00,79.2,67.3,30.29,NE,34,1.0,3.0,67,0.00,,,0.02,meteohub,2013-07-15 17:53:00,
2013-07-15 13:58:00,79.5,67.6,30.28,South,181,1.0,6.0,67,0.00,,,0.02,meteohub,2013-07-15 17:58:00,
2013-07-15 14:03:00,80.2,68.4,30.28,East,95,3.0,6.0,67,0.00,,,0.02,meteohub,2013-07-15 18:03:00,
2013-07-15 14:08:00,79.5,66.2,30.28,SE,128,1.0,6.0,64,0.00,,,0.02,meteohub,2013-07-15 18:08:00,
2013-07-15 14:13:00,79.5,67.6,30.28,East,82,1.0,5.0,67,0.00,,,0.02,meteohub,2013-07-15 18:13:00,
2013-07-15 14:18:00,81.0,69.4,30.28,ESE,103,0.0,6.0,68,0.00,,,0.02,meteohub,2013-07-15 18:18:00,
2013-07-15 14:23:00,80.8,68.0,30.28,ESE,111,1.0,11.0,65,0.00,,,0.02,meteohub,2013-07-15 18:23:00,
2013-07-15 14:28:00,79.0,70.0,30.28,NW,307,0.0,11.0,74,0.00,,,0.02,meteohub,2013-07-15 18:28:00,
2013-07-15 14:34:00,79.3,68.4,30.27,SE,124,3.0,11.0,69,0.00,,,0.02,meteohub,2013-07-15 18:34:00,
2013-07-15 14:39:00,79.5,68.0,30.28,ESE,106,1.0,10.0,68,0.00,,,0.02,meteohub,2013-07-15 18:39:00,
2013-07-15 14:44:00,78.6,68.4,30.27,East,84,1.0,6.0,71,0.00,,,0.02,meteohub,2013-07-15 18:44:00,
2013-07-15 14:50:00,78.3,68.9,30.27,East,100,0.0,6.0,73,0.00,,,0.02,meteohub,2013-07-15 18:50:00,
2013-07-15 14:55:00,79.0,68.0,30.27,SSE,159,2.0,4.0,69,0.00,,,0.02,meteohub,2013-07-15 18:55:00,
2013-07-15 15:00:00,80.4,68.5,30.27,SSW,204,0.0,4.0,67,0.00,,,0.02,meteohub,2013-07-15 19:00:00,
2013-07-15 15:05:00,81.0,68.0,30.27,East,87,2.0,4.0,65,0.00,,,0.02,meteohub,2013-07-15 19:05:00,
2013-07-15 15:10:00,80.1,68.2,30.27,North,359,0.0,5.0,67,0.00,,,0.02,meteohub,2013-07-15 19:10:00,
2013-07-15 15:15:00,80.2,67.8,30.27,NNW,348,2.0,5.0,66,0.00,,,0.02,meteohub,2013-07-15 19:15:00,
2013-07-15 15:20:00,79.7,68.5,30.27,East,84,1.0,5.0,69,0.00,,,0.02,meteohub,2013-07-15 19:20:00,
2013-07-15 15:25:00,79.0,68.4,30.27,SE,124,2.0,5.0,70,0.00,,,0.02,meteohub,2013-07-15 19:25:00,
2013-07-15 15:30:00,80.1,69.8,30.26,NW,319,0.0,5.0,71,0.00,,,0.02,meteohub,2013-07-15 19:30:00,
2013-07-15 15:36:00,81.0,68.9,30.26,NW,308,0.0,5.0,67,0.00,,,0.02,meteohub,2013-07-15 19:36:00,
2013-07-15 15:41:00,80.2,68.7,30.26,NE,51,5.0,5.0,68,0.00,,,0.02,meteohub,2013-07-15 19:41:00,
2013-07-15 15:46:00,78.8,67.3,30.26,East,90,0.0,6.0,68,0.00,,,0.02,meteohub,2013-07-15 19:46:00,
2013-07-15 15:51:00,79.0,67.1,30.25,SSW,201,0.0,6.0,67,0.00,,,0.02,meteohub,2013-07-15 19:51:00,
2013-07-15 15:56:00,80.2,69.1,30.25,ENE,68,2.0,5.0,69,0.00,,,0.02,meteohub,2013-07-15 19:56:00,
2013-07-15 16:01:00,79.9,67.5,30.25,NNE,12,0.0,5.0,66,0.00,,,0.02,meteohub,2013-07-15 20:01:00,
2013-07-15 16:06:00,79.5,67.6,30.25,East,84,0.0,5.0,67,0.00,,,0.02,meteohub,2013-07-15 20:06:00,
2013-07-15 16:11:00,80.4,67.1,30.25,East,80,0.0,3.0,64,0.00,,,0.02,meteohub,2013-07-15 20:11:00,
2013-07-15 16:17:00,80.1,67.3,30.25,ENE,59,0.0,4.0,65,0.00,,,0.02,meteohub,2013-07-15 20:17:00,
2013-07-15 16:22:00,79.9,69.6,30.25,NNE,23,0.0,4.0,71,0.00,,,0.02,meteohub,2013-07-15 20:22:00,
2013-07-15 16:27:00,78.4,68.2,30.25,ENE,63,0.0,4.0,71,0.00,,,0.02,meteohub,2013-07-15 20:27:00,
2013-07-15 16:32:00,78.1,67.5,30.25,ENE,76,0.0,4.0,70,0.00,,,0.02,meteohub,2013-07-15 20:32:00,
2013-07-15 16:37:00,78.8,68.2,30.25,NNE,27,0.0,4.0,70,0.00,,,0.02,meteohub,2013-07-15 20:37:00,
2013-07-15 16:42:00,79.3,67.8,30.24,East,79,1.0,3.0,68,0.00,,,0.02,meteohub,2013-07-15 20:42:00,
2013-07-15 16:47:00,78.6,67.6,30.24,NNE,22,1.0,3.0,69,0.00,,,0.02,meteohub,2013-07-15 20:47:00,
2013-07-15 16:52:00,78.4,68.7,30.24,ENE,57,0.0,3.0,72,0.00,,,0.02,meteohub,2013-07-15 20:52:00,
2013-07-15 16:57:00,79.0,69.3,30.24,North,356,0.0,3.0,72,0.00,,,0.02,meteohub,2013-07-15 20:57:00,
2013-07-15 17:02:00,79.2,68.5,30.24,ESE,105,0.0,3.0,70,0.00,,,0.02,meteohub,2013-07-15 21:02:00,
2013-07-15 17:07:00,79.3,69.4,30.24,NNE,17,0.0,2.0,72,0.00,,,0.02,meteohub,2013-07-15 21:07:00,
2013-07-15 17:12:00,80.2,68.7,30.24,East,97,1.0,2.0,68,0.00,,,0.02,meteohub,2013-07-15 21:12:00,
2013-07-15 17:17:00,80.8,69.6,30.24,NE,36,0.0,3.0,69,0.00,,,0.02,meteohub,2013-07-15 21:17:00,
2013-07-15 17:22:00,80.8,68.7,30.24,NW,304,0.0,3.0,67,0.00,,,0.02,meteohub,2013-07-15 21:22:00,
2013-07-15 17:27:00,80.2,67.8,30.24,NW,306,1.0,3.0,66,0.00,,,0.02,meteohub,2013-07-15 21:27:00,
2013-07-15 17:33:00,80.4,68.0,30.24,NNE,29,0.0,3.0,66,0.00,,,0.02,meteohub,2013-07-15 21:33:00,
2013-07-15 17:38:00,79.5,67.6,30.24,East,83,0.0,3.0,67,0.00,,,0.02,meteohub,2013-07-15 21:38:00,
2013-07-15 17:43:00,79.2,68.2,30.24,NNE,15,0.0,3.0,69,0.00,,,0.02,meteohub,2013-07-15 21:43:00,
2013-07-15 17:48:00,78.8,68.5,30.24,ENE,70,0.0,2.0,71,0.00,,,0.02,meteohub,2013-07-15 21:48:00,
2013-07-15 17:53:00,78.3,68.9,30.24,NE,40,0.0,2.0,73,0.00,,,0.02,meteohub,2013-07-15 21:53:00,
2013-07-15 17:59:00,77.7,67.6,30.24,East,101,2.0,2.0,71,0.00,,,0.02,meteohub,2013-07-15 21:59:00,
2013-07-15 18:04:00,77.9,68.2,30.24,NE,35,0.0,3.0,72,0.00,,,0.02,meteohub,2013-07-15 22:04:00,
2013-07-15 18:09:00,78.6,68.9,30.24,ENE,60,0.0,3.0,72,0.00,,,0.02,meteohub,2013-07-15 22:09:00,
2013-07-15 18:14:00,79.7,69.1,30.23,NNE,17,0.0,3.0,70,0.00,,,0.02,meteohub,2013-07-15 22:14:00,
2013-07-15 18:19:00,80.1,68.2,30.23,North,5,0.0,1.0,67,0.00,,,0.02,meteohub,2013-07-15 22:19:00,
2013-07-15 18:24:00,80.1,69.4,30.23,North,354,1.0,2.0,70,0.00,,,0.02,meteohub,2013-07-15 22:24:00,
2013-07-15 18:29:00,79.0,67.5,30.23,East,84,0.0,3.0,68,0.00,,,0.02,meteohub,2013-07-15 22:29:00,
2013-07-15 18:34:00,78.6,67.1,30.23,NE,49,1.0,7.0,68,0.00,,,0.02,meteohub,2013-07-15 22:34:00,
2013-07-15 18:40:00,78.6,67.1,30.23,ENE,60,0.0,7.0,68,0.00,,,0.02,meteohub,2013-07-15 22:40:00,
2013-07-15 18:45:00,78.3,67.6,30.23,East,86,0.0,3.0,70,0.00,,,0.02,meteohub,2013-07-15 22:45:00,
2013-07-15 18:50:00,77.5,68.5,30.23,NNE,31,0.0,3.0,74,0.00,,,0.02,meteohub,2013-07-15 22:50:00,
2013-07-15 18:55:00,77.0,69.3,30.24,North,357,0.0,3.0,77,0.00,,,0.02,meteohub,2013-07-15 22:55:00,
2013-07-15 19:00:00,76.5,66.7,30.24,North,6,0.0,5.0,72,0.00,,,0.02,meteohub,2013-07-15 23:00:00,
2013-07-15 19:06:00,76.5,67.1,30.25,ESE,122,0.0,5.0,73,0.00,,,0.02,meteohub,2013-07-15 23:06:00,
2013-07-15 19:10:00,77.0,67.6,30.25,East,95,0.0,4.0,73,0.00,,,0.02,meteohub,2013-07-15 23:10:00,
2013-07-15 19:16:00,76.8,67.1,30.25,NW,323,0.0,3.0,72,0.00,,,0.02,meteohub,2013-07-15 23:16:00,
2013-07-15 19:21:00,76.3,67.8,30.24,NNW,335,0.0,1.0,75,0.00,,,0.02,meteohub,2013-07-15 23:21:00,
2013-07-15 19:26:00,75.7,68.0,30.24,NW,323,0.0,1.0,77,0.00,,,0.02,meteohub,2013-07-15 23:26:00,
2013-07-15 19:31:00,75.4,68.7,30.24,NNW,341,0.0,1.0,80,0.00,,,0.02,meteohub,2013-07-15 23:31:00,
2013-07-15 19:37:00,74.8,68.2,30.25,NE,43,0.0,2.0,80,0.00,,,0.02,meteohub,2013-07-15 23:37:00,
2013-07-15 19:42:00,74.3,68.7,30.24,NE,38,0.0,2.0,83,0.00,,,0.02,meteohub,2013-07-15 23:42:00,
2013-07-15 19:47:00,73.8,68.4,30.24,NE,39,0.0,2.0,83,0.00,,,0.02,meteohub,2013-07-15 23:47:00,
2013-07-15 19:52:00,73.2,68.2,30.24,NE,38,0.0,0.0,84,0.00,,,0.02,meteohub,2013-07-15 23:52:00,
2013-07-15 19:57:00,72.7,67.8,30.24,NE,38,0.0,0.0,85,0.00,,,0.02,meteohub,2013-07-15 23:57:00,
2013-07-15 20:02:00,72.1,68.0,30.24,NNE,29,0.0,0.0,87,0.00,,,0.02,meteohub,2013-07-16 00:02:00,
2013-07-15 20:07:00,71.8,67.3,30.24,NNE,29,0.0,0.0,86,0.00,,,0.00,meteohub,2013-07-16 00:07:00,
2013-07-15 20:12:00,71.4,67.1,30.24,NNE,13,1.0,1.0,86,0.00,,,0.00,meteohub,2013-07-16 00:12:00,
2013-07-15 20:17:00,71.4,66.7,30.25,ESE,111,0.0,1.0,85,0.00,,,0.00,meteohub,2013-07-16 00:17:00,
2013-07-15 20:23:00,71.4,67.3,30.25,East,98,0.0,1.0,87,0.00,,,0.00,meteohub,2013-07-16 00:23:00,
2013-07-15 20:28:00,71.4,67.6,30.24,East,99,0.0,1.0,88,0.00,,,0.00,meteohub,2013-07-16 00:28:00,
2013-07-15 20:33:00,71.2,67.5,30.25,East,98,0.0,1.0,88,0.00,,,0.00,meteohub,2013-07-16 00:33:00,
2013-07-15 20:38:00,71.1,67.3,30.25,East,98,0.0,0.0,88,0.00,,,0.00,meteohub,2013-07-16 00:38:00,
2013-07-15 20:44:00,71.2,67.5,30.25,East,96,0.0,0.0,88,0.00,,,0.00,meteohub,2013-07-16 00:44:00,
2013-07-15 20:49:00,71.4,67.1,30.25,East,96,0.0,1.0,86,0.00,,,0.00,meteohub,2013-07-16 00:49:00,
2013-07-15 20:54:00,71.2,67.5,30.25,East,96,0.0,1.0,88,0.00,,,0.00,meteohub,2013-07-16 00:54:00,
2013-07-15 20:59:00,71.1,67.3,30.24,ENE,72,0.0,1.0,88,0.00,,,0.00,meteohub,2013-07-16 00:59:00,
2013-07-15 21:04:00,70.7,66.9,30.24,ENE,72,0.0,0.0,88,0.00,,,0.00,meteohub,2013-07-16 01:04:00,
2013-07-15 21:09:00,70.5,66.7,30.25,ENE,72,0.0,0.0,88,0.00,,,0.00,meteohub,2013-07-16 01:09:00,
2013-07-15 21:14:00,70.3,66.9,30.25,ENE,72,0.0,0.0,89,0.00,,,0.00,meteohub,2013-07-16 01:14:00,
2013-07-15 21:19:00,69.8,66.7,30.25,ENE,72,0.0,0.0,90,0.00,,,0.00,meteohub,2013-07-16 01:19:00,
2013-07-15 21:24:00,69.4,67.1,30.26,ENE,64,0.0,0.0,92,0.00,,,0.00,meteohub,2013-07-16 01:24:00,
2013-07-15 21:30:00,69.3,66.9,30.25,ENE,63,0.0,0.0,92,0.00,,,0.00,meteohub,2013-07-16 01:30:00,
2013-07-15 21:35:00,69.1,66.7,30.25,NNE,20,0.0,1.0,92,0.00,,,0.00,meteohub,2013-07-16 01:35:00,
2013-07-15 21:40:00,69.6,66.6,30.25,NE,56,2.0,2.0,90,0.00,,,0.00,meteohub,2013-07-16 01:40:00,
2013-07-15 21:45:00,70.3,66.6,30.26,ENE,66,0.0,2.0,88,0.00,,,0.00,meteohub,2013-07-16 01:45:00,
2013-07-15 21:50:00,70.2,66.7,30.26,ENE,67,0.0,2.0,89,0.00,,,0.00,meteohub,2013-07-16 01:50:00,
2013-07-15 21:55:00,69.6,66.6,30.26,ENE,66,0.0,2.0,90,0.00,,,0.00,meteohub,2013-07-16 01:55:00,
2013-07-15 22:00:00,69.3,66.6,30.27,ENE,67,0.0,0.0,91,0.00,,,0.00,meteohub,2013-07-16 02:00:00,
2013-07-15 22:05:00,68.7,66.4,30.27,ENE,67,0.0,0.0,92,0.00,,,0.00,meteohub,2013-07-16 02:05:00,
2013-07-15 22:10:00,68.5,66.4,30.27,ENE,67,0.0,0.0,93,0.00,,,0.00,meteohub,2013-07-16 02:10:00,
2013-07-15 22:16:00,68.4,66.6,30.27,ENE,67,0.0,0.0,94,0.00,,,0.00,meteohub,2013-07-16 02:16:00,
2013-07-15 22:21:00,68.4,66.9,30.27,ENE,67,0.0,0.0,95,0.00,,,0.00,meteohub,2013-07-16 02:21:00,
2013-07-15 22:26:00,68.2,66.7,30.27,ENE,67,0.0,0.0,95,0.00,,,0.00,meteohub,2013-07-16 02:26:00,
2013-07-15 22:31:00,68.2,66.7,30.27,ENE,66,0.0,0.0,95,0.00,,,0.00,meteohub,2013-07-16 02:31:00,
2013-07-15 22:36:00,68.2,66.7,30.27,ENE,66,0.0,0.0,95,0.00,,,0.00,meteohub,2013-07-16 02:36:00,
2013-07-15 22:41:00,68.2,66.9,30.28,SE,131,1.0,0.0,96,0.00,,,0.00,meteohub,2013-07-16 02:41:00,
2013-07-15 22:46:00,68.2,66.9,30.28,SSE,163,0.0,1.0,96,0.00,,,0.00,meteohub,2013-07-16 02:46:00,
2013-07-15 22:51:00,68.2,66.9,30.27,SSE,163,0.0,1.0,96,0.00,,,0.00,meteohub,2013-07-16 02:51:00,
2013-07-15 22:56:00,68.0,67.1,30.27,SSE,163,0.0,1.0,97,0.00,,,0.00,meteohub,2013-07-16 02:56:00,
2013-07-15 23:01:00,67.8,66.9,30.27,SSE,163,0.0,0.0,97,0.00,,,0.00,meteohub,2013-07-16 03:01:00,
2013-07-15 23:06:00,67.6,66.7,30.27,SSE,163,0.0,0.0,97,0.00,,,0.00,meteohub,2013-07-16 03:06:00,
2013-07-15 23:11:00,67.5,66.6,30.27,SSE,163,0.0,0.0,97,0.00,,,0.00,meteohub,2013-07-16 03:11:00,
2013-07-15 23:17:00,67.3,66.4,30.28,SSE,162,0.0,0.0,97,0.00,,,0.00,meteohub,2013-07-16 03:17:00,
2013-07-15 23:22:00,67.3,66.7,30.28,SSE,162,0.0,0.0,98,0.00,,,0.00,meteohub,2013-07-16 03:22:00,
2013-07-15 23:27:00,67.3,66.7,30.28,SSE,163,0.0,0.0,98,0.00,,,0.00,meteohub,2013-07-16 03:27:00,
2013-07-15 23:32:00,67.3,66.7,30.28,SSE,163,0.0,0.0,98,0.00,,,0.00,meteohub,2013-07-16 03:32:00,
2013-07-15 23:37:00,67.3,66.7,30.29,SSE,162,0.0,0.0,98,0.00,,,0.00,meteohub,2013-07-16 03:37:00,
2013-07-15 23:42:00,67.3,66.7,30.29,SSE,162,0.0,0.0,98,0.00,,,0.00,meteohub,2013-07-16 03:42:00,
2013-07-15 23:47:00,67.5,66.9,30.29,SW,214,0.0,0.0,98,0.01,,,0.01,meteohub,2013-07-16 03:47:00,
2013-07-15 23:52:00,67.5,66.9,30.29,South,191,1.0,1.0,98,0.03,,,0.03,meteohub,2013-07-16 03:52:00,
2013-07-15 23:57:00,67.5,66.9,30.29,SSE,165,0.0,1.0,98,0.03,,,0.03,meteohub,2013-07-16 03:57:00,